»·PEaware :: AAL990 KELP-KABQ

AAL990 :: KELP-KABQ

FLIGHT INFORMATION

Flight Status: Arrived
Operator:
American Airlines
More flights by this operator :: More flights under this callsign
Pilot: Brett P. (26886)
Aircraft: EMBRAER EMB-145XR
(E45X)
More flights by this aircraft type
Origin: KELP El Paso Intl
United States
Destination: KABQ Albuquerque Intl Sunport
United States
More flights between these airports :: More routes between these airports
Route: +ATKNN5 SLNNK ONM ABQ
File this flight plan on PilotEdge
Remarks:
Altitude:
(Current/Filed)
28,000ft
Speed:
(Current/Filed)
400kts
Departed: 16-Apr-20 05:29 PM
Arrived: 16-Apr-20 06:09 PM
Distance/Time
Traveled:
195nm/0:40
Distance/Time
To Go:
Arrived

Flight Plot

Page will automatically refresh every two minutes.

Flight plan parsing failed; only flown route is shown


Map Options




Map Legend


Flown Route
Filed Route
Departure Airport
Arrival Airport
Navaid (VOR, NDB)
Fix

Horizontal Profiles

Position Reports

Time Latitude Longitude Heading Altitude Ground
Speed
16-Apr-20 16:55 31.800661 -106.396133 227 3920ft 0kts
16-Apr-20 16:57 31.800661 -106.396133 227 3920ft 0kts
16-Apr-20 16:58 31.800661 -106.396133 227 3920ft 0kts
16-Apr-20 16:59 31.800661 -106.396133 227 3920ft 0kts
16-Apr-20 17:00 31.800661 -106.396133 227 3920ft 0kts
16-Apr-20 17:01 31.800661 -106.396133 227 3920ft 0kts
16-Apr-20 17:02 31.800661 -106.396133 227 3920ft 0kts
16-Apr-20 17:03 31.800661 -106.396133 227 3920ft 0kts
16-Apr-20 17:04 31.800661 -106.396133 227 3920ft 0kts
16-Apr-20 17:05 31.800661 -106.396133 227 3920ft 0kts
16-Apr-20 17:06 31.800661 -106.396133 227 3920ft 0kts
16-Apr-20 17:07 31.800661 -106.396133 227 3920ft 0kts
16-Apr-20 17:08 31.800661 -106.396133 227 3920ft 0kts
16-Apr-20 17:09 31.800661 -106.396133 227 3920ft 0kts
16-Apr-20 17:10 31.800659 -106.396135 227 3920ft 0kts
16-Apr-20 17:11 31.800958 -106.395942 187 3920ft 2kts
16-Apr-20 17:12 31.801465 -106.396214 121 3920ft 2kts
16-Apr-20 17:13 31.801545 -106.396647 91 3920ft 0kts
16-Apr-20 17:13 31.801545 -106.396646 91 3920ft 0kts
16-Apr-20 17:15 31.801545 -106.396646 91 3920ft 0kts
16-Apr-20 17:16 31.801545 -106.396646 91 3920ft 0kts
16-Apr-20 17:16 31.801545 -106.396646 91 3920ft 0kts
16-Apr-20 17:18 31.801526 -106.396044 92 3920ft 10kts
16-Apr-20 17:19 31.801056 -106.391769 131 3923ft 12kts
16-Apr-20 17:19 31.799899 -106.389159 88 3925ft 6kts
16-Apr-20 17:20 31.799916 -106.384712 89 3934ft 20kts
16-Apr-20 17:22 31.799857 -106.377658 93 3941ft 18kts
16-Apr-20 17:22 31.799624 -106.372917 93 3947ft 18kts
16-Apr-20 17:23 31.799284 -106.366012 94 3956ft 23kts
16-Apr-20 17:24 31.799491 -106.360395 6 3946ft 6kts
16-Apr-20 17:25 31.799524 -106.360391 6 3946ft 0kts
16-Apr-20 17:26 31.799524 -106.360391 6 3946ft 0kts
16-Apr-20 17:27 31.800699 -106.361214 273 3948ft 13kts
16-Apr-20 17:28 31.797707 -106.399629 254 5827ft 164kts
16-Apr-20 17:29 31.778516 -106.455130 236 8872ft 231kts
16-Apr-20 17:30 31.754958 -106.524672 300 11427ft 255kts
16-Apr-20 17:31 31.825365 -106.586526 345 13766ft 376kts
16-Apr-20 17:32 31.930346 -106.606178 349 15900ft 387kts
16-Apr-20 17:33 32.035138 -106.627374 339 20434ft 370kts
16-Apr-20 17:34 32.119193 -106.718783 314 23683ft 437kts
16-Apr-20 17:35 32.221202 -106.801645 324 27102ft 417kts
16-Apr-20 17:36 32.324018 -106.882164 324 28015ft 452kts
16-Apr-20 17:37 32.428494 -106.964176 324 28014ft 451kts
16-Apr-20 17:38 32.532978 -107.046422 324 28007ft 451kts
16-Apr-20 17:39 32.637250 -107.128549 324 27998ft 451kts
16-Apr-20 17:40 32.742057 -107.211049 324 27989ft 451kts
16-Apr-20 17:41 32.846379 -107.293126 324 27982ft 450kts
16-Apr-20 17:42 32.950907 -107.371144 340 27955ft 454kts
16-Apr-20 17:43 33.075663 -107.352514 6 27971ft 459kts
16-Apr-20 17:44 33.201495 -107.321109 16 27957ft 462kts
16-Apr-20 17:45 33.323514 -107.274205 20 27961ft 463kts
16-Apr-20 17:46 33.442008 -107.214346 18 27963ft 463kts
16-Apr-20 17:47 33.563519 -107.163307 18 27955ft 463kts
16-Apr-20 17:48 33.685091 -107.112190 17 27500ft 463kts
16-Apr-20 17:49 33.806820 -107.060964 17 26602ft 465kts
16-Apr-20 17:50 33.927194 -107.010222 17 25583ft 441kts
16-Apr-20 17:51 34.044578 -106.960582 17 24600ft 450kts
16-Apr-20 17:52 34.163330 -106.910343 17 23602ft 451kts
16-Apr-20 17:53 34.280507 -106.860674 17 22839ft 439kts
16-Apr-20 17:54 34.395308 -106.808530 15 21904ft 440kts
16-Apr-20 17:55 34.511761 -106.819048 348 21340ft 399kts
16-Apr-20 17:56 34.623854 -106.829729 358 20056ft 409kts
16-Apr-20 17:57 34.733382 -106.828490 358 18685ft 385kts
16-Apr-20 17:58 34.833900 -106.827187 358 17308ft 331kts
16-Apr-20 17:59 34.921893 -106.825454 358 15979ft 312kts
16-Apr-20 18:00 35.007271 -106.815507 33 14513ft 313kts
16-Apr-20 18:01 35.036558 -106.722074 62 12947ft 290kts
16-Apr-20 18:02 35.086603 -106.648278 48 11381ft 278kts
16-Apr-20 18:03 35.119539 -106.574819 88 9735ft 232kts
16-Apr-20 18:04 35.094973 -106.517284 162 8261ft 208kts
16-Apr-20 18:05 35.060928 -106.531456 248 7038ft 157kts
16-Apr-20 18:06 35.044520 -106.573409 263 5502ft 129kts
16-Apr-20 18:07 35.044262 -106.601852 269 5321ft 47kts
16-Apr-20 18:08 35.045629 -106.610613 321 5318ft 10kts

Navigation Log

Ident Type
Flight plan parsing failed, navigation log unavailable